sensor_id;sensor_type;location;lat;lon;timestamp;P1;durP1;ratioP1;P2;durP2;ratioP2
12654;SDS011;6392;44.644;11.448;2022-09-01T00:01:40;8.73;;;7.80;;
12654;SDS011;6392;44.644;11.448;2022-09-01T00:04:09;11.20;;;7.90;;
12654;SDS011;6392;44.644;11.448;2022-09-01T00:06:40;10.53;;;7.87;;
12654;SDS011;6392;44.644;11.448;2022-09-01T00:09:08;10.87;;;8.43;;
12654;SDS011;6392;44.644;11.448;2022-09-01T00:11:38;9.30;;;8.30;;
12654;SDS011;6392;44.644;11.448;2022-09-01T00:14:07;9.07;;;8.17;;
12654;SDS011;6392;44.644;11.448;2022-09-01T00:16:34;8.67;;;7.77;;
12654;SDS011;6392;44.644;11.448;2022-09-01T00:19:02;9.33;;;7.87;;
12654;SDS011;6392;44.644;11.448;2022-09-01T00:21:32;9.10;;;7.63;;
12654;SDS011;6392;44.644;11.448;2022-09-01T00:24:01;10.07;;;8.13;;
12654;SDS011;6392;44.644;11.448;2022-09-01T00:26:29;10.00;;;7.90;;
12654;SDS011;6392;44.644;11.448;2022-09-01T00:28:56;13.20;;;7.97;;
12654;SDS011;6392;44.644;11.448;2022-09-01T00:31:23;9.87;;;8.23;;
12654;SDS011;6392;44.644;11.448;2022-09-01T00:33:50;10.60;;;8.90;;
12654;SDS011;6392;44.644;11.448;2022-09-01T00:36:18;11.07;;;9.00;;
12654;SDS011;6392;44.644;11.448;2022-09-01T00:38:47;10.17;;;8.93;;
12654;SDS011;6392;44.644;11.448;2022-09-01T00:41:15;10.90;;;9.57;;
12654;SDS011;6392;44.644;11.448;2022-09-01T00:43:45;9.90;;;8.90;;
12654;SDS011;6392;44.644;11.448;2022-09-01T00:46:14;14.77;;;9.80;;
12654;SDS011;6392;44.644;11.448;2022-09-01T00:48:43;11.60;;;9.50;;
12654;SDS011;6392;44.644;11.448;2022-09-01T00:51:10;12.03;;;9.67;;
12654;SDS011;6392;44.644;11.448;2022-09-01T00:53:38;11.37;;;9.00;;
12654;SDS011;6392;44.644;11.448;2022-09-01T00:56:11;12.33;;;9.97;;
12654;SDS011;6392;44.644;11.448;2022-09-01T00:58:39;11.30;;;9.60;;
12654;SDS011;6392;44.644;11.448;2022-09-01T01:01:08;14.43;;;9.83;;
12654;SDS011;6392;44.644;11.448;2022-09-01T01:03:36;14.13;;;9.50;;
12654;SDS011;6392;44.644;11.448;2022-09-01T01:06:04;11.17;;;9.17;;
12654;SDS011;6392;44.644;11.448;2022-09-01T01:08:35;14.03;;;10.03;;
12654;SDS011;6392;44.644;11.448;2022-09-01T01:11:06;11.83;;;10.00;;
12654;SDS011;6392;44.644;11.448;2022-09-01T01:13:53;12.13;;;9.63;;
12654;SDS011;6392;44.644;11.448;2022-09-01T01:16:22;12.03;;;9.47;;
12654;SDS011;6392;44.644;11.448;2022-09-01T01:18:50;13.93;;;10.20;;
12654;SDS011;6392;44.644;11.448;2022-09-01T01:21:20;13.07;;;10.40;;
12654;SDS011;6392;44.644;11.448;2022-09-01T01:24:14;11.47;;;10.10;;
12654;SDS011;6392;44.644;11.448;2022-09-01T01:26:48;12.93;;;10.20;;
12654;SDS011;6392;44.644;11.448;2022-09-01T01:29:17;14.20;;;10.10;;
12654;SDS011;6392;44.644;11.448;2022-09-01T01:31:44;14.10;;;10.60;;
12654;SDS011;6392;44.644;11.448;2022-09-01T01:34:12;16.60;;;10.67;;
12654;SDS011;6392;44.644;11.448;2022-09-01T01:36:39;12.73;;;10.57;;
12654;SDS011;6392;44.644;11.448;2022-09-01T01:39:07;12.50;;;11.13;;
12654;SDS011;6392;44.644;11.448;2022-09-01T01:41:38;15.20;;;11.87;;
12654;SDS011;6392;44.644;11.448;2022-09-01T01:44:09;12.77;;;11.40;;
12654;SDS011;6392;44.644;11.448;2022-09-01T01:46:39;15.27;;;12.67;;
12654;SDS011;6392;44.644;11.448;2022-09-01T01:49:08;14.60;;;12.20;;
12654;SDS011;6392;44.644;11.448;2022-09-01T01:51:37;15.60;;;12.80;;
12654;SDS011;6392;44.644;11.448;2022-09-01T01:54:05;17.30;;;12.87;;
12654;SDS011;6392;44.644;11.448;2022-09-01T01:56:33;13.93;;;12.30;;
12654;SDS011;6392;44.644;11.448;2022-09-01T01:59:05;16.23;;;13.60;;
12654;SDS011;6392;44.644;11.448;2022-09-01T02:01:36;15.33;;;12.30;;
12654;SDS011;6392;44.644;11.448;2022-09-01T02:04:03;17.47;;;13.07;;
12654;SDS011;6392;44.644;11.448;2022-09-01T02:06:31;15.40;;;12.27;;
12654;SDS011;6392;44.644;11.448;2022-09-01T02:08:59;16.57;;;12.03;;
12654;SDS011;6392;44.644;11.448;2022-09-01T02:11:28;15.60;;;11.60;;
12654;SDS011;6392;44.644;11.448;2022-09-01T02:13:58;13.70;;;11.37;;
12654;SDS011;6392;44.644;11.448;2022-09-01T02:16:28;20.43;;;12.27;;
12654;SDS011;6392;44.644;11.448;2022-09-01T02:18:56;13.43;;;11.43;;
12654;SDS011;6392;44.644;11.448;2022-09-01T02:21:25;12.87;;;10.50;;
12654;SDS011;6392;44.644;11.448;2022-09-01T02:23:54;14.07;;;11.50;;
12654;SDS011;6392;44.644;11.448;2022-09-01T02:26:25;14.97;;;12.30;;
12654;SDS011;6392;44.644;11.448;2022-09-01T02:28:56;16.00;;;13.27;;
12654;SDS011;6392;44.644;11.448;2022-09-01T02:31:27;16.40;;;12.83;;
12654;SDS011;6392;44.644;11.448;2022-09-01T02:33:56;16.37;;;13.43;;
12654;SDS011;6392;44.644;11.448;2022-09-01T02:36:23;15.70;;;12.33;;
12654;SDS011;6392;44.644;11.448;2022-09-01T02:38:50;14.80;;;12.80;;
12654;SDS011;6392;44.644;11.448;2022-09-01T02:41:18;15.87;;;12.57;;
12654;SDS011;6392;44.644;11.448;2022-09-01T02:43:48;13.77;;;12.17;;
12654;SDS011;6392;44.644;11.448;2022-09-01T02:46:15;18.77;;;13.43;;
12654;SDS011;6392;44.644;11.448;2022-09-01T02:48:48;14.60;;;12.90;;
12654;SDS011;6392;44.644;11.448;2022-09-01T02:51:17;17.20;;;14.10;;
12654;SDS011;6392;44.644;11.448;2022-09-01T02:53:47;15.63;;;12.80;;
12654;SDS011;6392;44.644;11.448;2022-09-01T02:56:17;17.60;;;13.23;;
12654;SDS011;6392;44.644;11.448;2022-09-01T02:58:47;19.33;;;13.47;;
12654;SDS011;6392;44.644;11.448;2022-09-01T03:01:17;16.57;;;13.60;;
12654;SDS011;6392;44.644;11.448;2022-09-01T03:03:50;16.23;;;13.30;;
12654;SDS011;6392;44.644;11.448;2022-09-01T03:06:19;15.97;;;13.97;;
12654;SDS011;6392;44.644;11.448;2022-09-01T03:08:48;16.90;;;13.50;;
12654;SDS011;6392;44.644;11.448;2022-09-01T03:11:16;16.27;;;12.90;;
12654;SDS011;6392;44.644;11.448;2022-09-01T03:13:43;17.33;;;13.00;;
12654;SDS011;6392;44.644;11.448;2022-09-01T03:16:11;18.93;;;13.83;;
12654;SDS011;6392;44.644;11.448;2022-09-01T03:18:38;16.60;;;13.63;;
12654;SDS011;6392;44.644;11.448;2022-09-01T03:21:08;17.20;;;14.00;;
12654;SDS011;6392;44.644;11.448;2022-09-01T03:23:40;18.57;;;14.77;;
12654;SDS011;6392;44.644;11.448;2022-09-01T03:26:07;19.40;;;14.63;;
12654;SDS011;6392;44.644;11.448;2022-09-01T03:28:35;16.10;;;13.43;;
12654;SDS011;6392;44.644;11.448;2022-09-01T03:31:02;15.57;;;13.23;;
12654;SDS011;6392;44.644;11.448;2022-09-01T03:33:30;16.37;;;13.17;;
12654;SDS011;6392;44.644;11.448;2022-09-01T03:35:57;17.00;;;13.97;;
12654;SDS011;6392;44.644;11.448;2022-09-01T03:38:26;17.90;;;14.27;;
12654;SDS011;6392;44.644;11.448;2022-09-01T03:40:54;18.90;;;13.40;;
12654;SDS011;6392;44.644;11.448;2022-09-01T03:43:26;16.87;;;14.23;;
12654;SDS011;6392;44.644;11.448;2022-09-01T03:45:53;18.23;;;13.23;;
12654;SDS011;6392;44.644;11.448;2022-09-01T03:48:24;18.90;;;14.50;;
12654;SDS011;6392;44.644;11.448;2022-09-01T03:50:53;16.97;;;14.17;;
12654;SDS011;6392;44.644;11.448;2022-09-01T03:53:21;15.50;;;13.03;;
12654;SDS011;6392;44.644;11.448;2022-09-01T03:55:52;18.30;;;13.90;;
12654;SDS011;6392;44.644;11.448;2022-09-01T03:58:22;16.87;;;12.77;;
12654;SDS011;6392;44.644;11.448;2022-09-01T04:00:50;18.13;;;13.43;;
12654;SDS011;6392;44.644;11.448;2022-09-01T04:03:20;17.00;;;14.17;;
12654;SDS011;6392;44.644;11.448;2022-09-01T04:05:49;18.63;;;14.50;;
12654;SDS011;6392;44.644;11.448;2022-09-01T04:08:18;16.53;;;13.30;;
12654;SDS011;6392;44.644;11.448;2022-09-01T04:10:48;17.13;;;14.10;;
12654;SDS011;6392;44.644;11.448;2022-09-01T04:13:19;18.03;;;14.03;;
12654;SDS011;6392;44.644;11.448;2022-09-01T04:15:48;18.90;;;14.53;;
12654;SDS011;6392;44.644;11.448;2022-09-01T04:18:16;18.53;;;14.10;;
12654;SDS011;6392;44.644;11.448;2022-09-01T04:20:46;19.13;;;15.00;;
12654;SDS011;6392;44.644;11.448;2022-09-01T04:23:15;16.77;;;14.03;;
12654;SDS011;6392;44.644;11.448;2022-09-01T04:25:50;18.27;;;13.90;;
12654;SDS011;6392;44.644;11.448;2022-09-01T04:28:21;17.73;;;14.37;;
12654;SDS011;6392;44.644;11.448;2022-09-01T04:30:51;18.40;;;13.33;;
12654;SDS011;6392;44.644;11.448;2022-09-01T04:33:20;18.67;;;14.63;;
12654;SDS011;6392;44.644;11.448;2022-09-01T04:35:48;18.70;;;13.60;;
12654;SDS011;6392;44.644;11.448;2022-09-01T04:38:21;18.47;;;13.77;;
12654;SDS011;6392;44.644;11.448;2022-09-01T04:40:50;16.17;;;13.77;;
12654;SDS011;6392;44.644;11.448;2022-09-01T04:43:22;15.77;;;13.13;;
12654;SDS011;6392;44.644;11.448;2022-09-01T04:45:50;16.07;;;13.37;;
12654;SDS011;6392;44.644;11.448;2022-09-01T04:48:20;17.63;;;13.73;;
12654;SDS011;6392;44.644;11.448;2022-09-01T04:50:47;13.77;;;11.80;;
12654;SDS011;6392;44.644;11.448;2022-09-01T04:53:16;15.07;;;13.10;;
12654;SDS011;6392;44.644;11.448;2022-09-01T04:55:43;17.93;;;12.57;;
12654;SDS011;6392;44.644;11.448;2022-09-01T04:58:12;16.03;;;12.53;;
12654;SDS011;6392;44.644;11.448;2022-09-01T05:00:43;14.47;;;12.20;;
12654;SDS011;6392;44.644;11.448;2022-09-01T05:03:12;14.03;;;11.13;;
12654;SDS011;6392;44.644;11.448;2022-09-01T05:05:41;16.67;;;11.80;;
12654;SDS011;6392;44.644;11.448;2022-09-01T05:08:10;13.20;;;11.53;;
12654;SDS011;6392;44.644;11.448;2022-09-01T05:10:41;13.93;;;10.97;;
12654;SDS011;6392;44.644;11.448;2022-09-01T05:13:09;12.70;;;10.90;;
12654;SDS011;6392;44.644;11.448;2022-09-01T05:15:38;15.17;;;11.13;;
12654;SDS011;6392;44.644;11.448;2022-09-01T05:18:12;14.10;;;10.73;;
12654;SDS011;6392;44.644;11.448;2022-09-01T05:20:41;13.93;;;10.47;;
12654;SDS011;6392;44.644;11.448;2022-09-01T05:23:11;14.37;;;11.13;;
12654;SDS011;6392;44.644;11.448;2022-09-01T05:25:39;13.60;;;10.70;;
12654;SDS011;6392;44.644;11.448;2022-09-01T05:28:08;16.10;;;11.87;;
12654;SDS011;6392;44.644;11.448;2022-09-01T05:30:36;15.50;;;11.60;;
12654;SDS011;6392;44.644;11.448;2022-09-01T05:33:04;14.50;;;12.37;;
12654;SDS011;6392;44.644;11.448;2022-09-01T05:35:38;15.00;;;11.93;;
12654;SDS011;6392;44.644;11.448;2022-09-01T05:38:09;14.60;;;11.57;;
12654;SDS011;6392;44.644;11.448;2022-09-01T05:40:40;16.43;;;12.40;;
12654;SDS011;6392;44.644;11.448;2022-09-01T05:43:08;14.43;;;12.17;;
12654;SDS011;6392;44.644;11.448;2022-09-01T05:45:37;12.70;;;11.20;;
12654;SDS011;6392;44.644;11.448;2022-09-01T05:48:08;14.83;;;10.10;;
12654;SDS011;6392;44.644;11.448;2022-09-01T05:50:39;15.03;;;9.13;;
12654;SDS011;6392;44.644;11.448;2022-09-01T05:53:08;11.77;;;8.83;;
12654;SDS011;6392;44.644;11.448;2022-09-01T05:55:40;10.53;;;8.90;;
12654;SDS011;6392;44.644;11.448;2022-09-01T05:58:08;9.43;;;8.10;;
12654;SDS011;6392;44.644;11.448;2022-09-01T06:00:37;11.83;;;8.27;;
12654;SDS011;6392;44.644;11.448;2022-09-01T06:03:06;11.70;;;9.57;;
12654;SDS011;6392;44.644;11.448;2022-09-01T06:05:35;9.60;;;7.90;;
12654;SDS011;6392;44.644;11.448;2022-09-01T06:08:05;11.53;;;8.30;;
12654;SDS011;6392;44.644;11.448;2022-09-01T06:10:35;10.47;;;8.10;;
12654;SDS011;6392;44.644;11.448;2022-09-01T06:13:04;11.37;;;8.70;;
12654;SDS011;6392;44.644;11.448;2022-09-01T06:15:32;10.33;;;7.37;;
12654;SDS011;6392;44.644;11.448;2022-09-01T06:18:03;8.27;;;6.23;;
12654;SDS011;6392;44.644;11.448;2022-09-01T06:20:31;8.67;;;6.87;;
12654;SDS011;6392;44.644;11.448;2022-09-01T06:22:58;8.87;;;6.53;;
12654;SDS011;6392;44.644;11.448;2022-09-01T06:25:28;7.50;;;6.60;;
12654;SDS011;6392;44.644;11.448;2022-09-01T06:27:55;9.37;;;6.40;;
12654;SDS011;6392;44.644;11.448;2022-09-01T06:30:22;7.57;;;6.77;;
12654;SDS011;6392;44.644;11.448;2022-09-01T06:32:50;9.57;;;6.40;;
12654;SDS011;6392;44.644;11.448;2022-09-01T06:35:18;7.13;;;5.67;;
12654;SDS011;6392;44.644;11.448;2022-09-01T06:37:49;6.00;;;5.37;;
12654;SDS011;6392;44.644;11.448;2022-09-01T06:40:16;5.10;;;4.60;;
12654;SDS011;6392;44.644;11.448;2022-09-01T06:42:46;5.73;;;4.57;;
12654;SDS011;6392;44.644;11.448;2022-09-01T06:45:15;6.67;;;5.10;;
12654;SDS011;6392;44.644;11.448;2022-09-01T06:47:45;5.83;;;4.53;;
12654;SDS011;6392;44.644;11.448;2022-09-01T06:50:15;5.80;;;4.37;;
12654;SDS011;6392;44.644;11.448;2022-09-01T06:52:46;7.10;;;4.77;;
12654;SDS011;6392;44.644;11.448;2022-09-01T06:55:14;4.47;;;4.07;;
12654;SDS011;6392;44.644;11.448;2022-09-01T06:57:42;6.40;;;4.10;;
12654;SDS011;6392;44.644;11.448;2022-09-01T07:00:13;5.17;;;4.07;;
12654;SDS011;6392;44.644;11.448;2022-09-01T07:02:42;4.97;;;4.03;;
12654;SDS011;6392;44.644;11.448;2022-09-01T07:05:10;4.50;;;4.07;;
12654;SDS011;6392;44.644;11.448;2022-09-01T07:07:41;6.10;;;3.60;;
12654;SDS011;6392;44.644;11.448;2022-09-01T07:10:12;8.10;;;4.20;;
12654;SDS011;6392;44.644;11.448;2022-09-01T07:12:39;4.13;;;3.27;;
12654;SDS011;6392;44.644;11.448;2022-09-01T07:15:11;4.80;;;3.50;;
12654;SDS011;6392;44.644;11.448;2022-09-01T07:17:39;3.77;;;3.40;;
12654;SDS011;6392;44.644;11.448;2022-09-01T07:20:07;4.30;;;3.67;;
12654;SDS011;6392;44.644;11.448;2022-09-01T07:22:35;4.33;;;3.40;;
12654;SDS011;6392;44.644;11.448;2022-09-01T07:25:02;4.07;;;3.20;;
12654;SDS011;6392;44.644;11.448;2022-09-01T07:27:32;4.33;;;2.93;;
12654;SDS011;6392;44.644;11.448;2022-09-01T07:29:59;5.87;;;2.83;;
12654;SDS011;6392;44.644;11.448;2022-09-01T07:32:27;3.67;;;2.97;;
12654;SDS011;6392;44.644;11.448;2022-09-01T07:34:56;3.63;;;3.00;;
12654;SDS011;6392;44.644;11.448;2022-09-01T07:37:23;6.80;;;2.97;;
12654;SDS011;6392;44.644;11.448;2022-09-01T07:39:52;4.57;;;3.20;;
12654;SDS011;6392;44.644;11.448;2022-09-01T07:42:19;4.27;;;3.30;;
12654;SDS011;6392;44.644;11.448;2022-09-01T07:44:46;4.90;;;3.13;;
12654;SDS011;6392;44.644;11.448;2022-09-01T07:47:14;4.23;;;3.47;;
12654;SDS011;6392;44.644;11.448;2022-09-01T07:49:43;3.73;;;3.13;;
12654;SDS011;6392;44.644;11.448;2022-09-01T07:52:10;3.63;;;3.30;;
12654;SDS011;6392;44.644;11.448;2022-09-01T07:54:37;6.40;;;3.63;;
12654;SDS011;6392;44.644;11.448;2022-09-01T07:57:04;6.73;;;3.50;;
12654;SDS011;6392;44.644;11.448;2022-09-01T07:59:31;7.40;;;3.10;;
12654;SDS011;6392;44.644;11.448;2022-09-01T08:01:59;5.80;;;2.80;;
12654;SDS011;6392;44.644;11.448;2022-09-01T08:04:28;5.07;;;3.23;;
12654;SDS011;6392;44.644;11.448;2022-09-01T08:06:57;4.97;;;3.20;;
12654;SDS011;6392;44.644;11.448;2022-09-01T08:09:24;3.73;;;2.80;;
12654;SDS011;6392;44.644;11.448;2022-09-01T08:11:52;5.33;;;3.20;;
12654;SDS011;6392;44.644;11.448;2022-09-01T08:14:20;3.47;;;2.50;;
12654;SDS011;6392;44.644;11.448;2022-09-01T08:16:47;5.97;;;3.00;;
12654;SDS011;6392;44.644;11.448;2022-09-01T08:19:14;2.97;;;2.50;;
12654;SDS011;6392;44.644;11.448;2022-09-01T08:21:42;3.63;;;2.70;;
12654;SDS011;6392;44.644;11.448;2022-09-01T08:24:11;3.30;;;2.50;;
12654;SDS011;6392;44.644;11.448;2022-09-01T08:26:38;2.50;;;1.90;;
12654;SDS011;6392;44.644;11.448;2022-09-01T08:29:05;2.53;;;1.97;;
12654;SDS011;6392;44.644;11.448;2022-09-01T08:31:32;3.27;;;2.70;;
12654;SDS011;6392;44.644;11.448;2022-09-01T08:33:59;3.37;;;2.23;;
12654;SDS011;6392;44.644;11.448;2022-09-01T08:36:29;3.47;;;1.80;;
12654;SDS011;6392;44.644;11.448;2022-09-01T08:38:56;2.43;;;2.13;;
12654;SDS011;6392;44.644;11.448;2022-09-01T08:41:28;2.53;;;2.07;;
12654;SDS011;6392;44.644;11.448;2022-09-01T08:44:07;2.13;;;1.93;;
12654;SDS011;6392;44.644;11.448;2022-09-01T08:46:42;3.00;;;1.93;;
12654;SDS011;6392;44.644;11.448;2022-09-01T08:49:12;3.53;;;1.73;;
12654;SDS011;6392;44.644;11.448;2022-09-01T08:51:42;2.97;;;2.00;;
12654;SDS011;6392;44.644;11.448;2022-09-01T08:54:16;2.17;;;1.90;;
12654;SDS011;6392;44.644;11.448;2022-09-01T08:56:51;4.27;;;1.80;;
12654;SDS011;6392;44.644;11.448;2022-09-01T08:59:21;3.67;;;1.90;;
12654;SDS011;6392;44.644;11.448;2022-09-01T09:01:50;2.37;;;1.70;;
12654;SDS011;6392;44.644;11.448;2022-09-01T09:04:29;3.07;;;2.00;;
12654;SDS011;6392;44.644;11.448;2022-09-01T09:07:12;4.37;;;1.73;;
12654;SDS011;6392;44.644;11.448;2022-09-01T09:09:47;2.90;;;1.47;;
12654;SDS011;6392;44.644;11.448;2022-09-01T09:12:28;4.20;;;1.80;;
12654;SDS011;6392;44.644;11.448;2022-09-01T09:15:13;4.10;;;2.20;;
12654;SDS011;6392;44.644;11.448;2022-09-01T09:17:48;4.70;;;1.97;;
12654;SDS011;6392;44.644;11.448;2022-09-01T09:20:23;1.87;;;1.50;;
12654;SDS011;6392;44.644;11.448;2022-09-01T09:22:51;3.07;;;1.43;;
12654;SDS011;6392;44.644;11.448;2022-09-01T09:25:21;4.03;;;1.70;;
12654;SDS011;6392;44.644;11.448;2022-09-01T09:27:50;1.50;;;1.23;;
12654;SDS011;6392;44.644;11.448;2022-09-01T09:30:19;2.17;;;1.40;;
12654;SDS011;6392;44.644;11.448;2022-09-01T09:32:48;6.00;;;1.97;;
12654;SDS011;6392;44.644;11.448;2022-09-01T09:35:27;5.53;;;1.90;;
12654;SDS011;6392;44.644;11.448;2022-09-01T09:38:13;3.07;;;1.47;;
12654;SDS011;6392;44.644;11.448;2022-09-01T09:40:57;4.03;;;2.07;;
12654;SDS011;6392;44.644;11.448;2022-09-01T09:43:28;6.03;;;2.07;;
12654;SDS011;6392;44.644;11.448;2022-09-01T09:48:48;2.47;;;1.60;;
12654;SDS011;6392;44.644;11.448;2022-09-01T09:51:31;3.63;;;1.67;;
12654;SDS011;6392;44.644;11.448;2022-09-01T09:54:09;3.83;;;2.13;;
12654;SDS011;6392;44.644;11.448;2022-09-01T09:56:38;2.37;;;1.87;;
12654;SDS011;6392;44.644;11.448;2022-09-01T09:59:20;2.57;;;1.50;;
12654;SDS011;6392;44.644;11.448;2022-09-01T10:01:49;2.70;;;1.53;;
12654;SDS011;6392;44.644;11.448;2022-09-01T10:07:25;2.50;;;1.80;;
12654;SDS011;6392;44.644;11.448;2022-09-01T10:09:55;4.43;;;1.90;;
12654;SDS011;6392;44.644;11.448;2022-09-01T10:12:24;3.10;;;1.60;;
12654;SDS011;6392;44.644;11.448;2022-09-01T10:14:55;2.87;;;1.77;;
12654;SDS011;6392;44.644;11.448;2022-09-01T10:17:28;4.07;;;1.83;;
12654;SDS011;6392;44.644;11.448;2022-09-01T10:19:59;3.10;;;1.93;;
12654;SDS011;6392;44.644;11.448;2022-09-01T10:22:32;3.10;;;1.70;;
12654;SDS011;6392;44.644;11.448;2022-09-01T10:25:02;2.87;;;1.43;;
12654;SDS011;6392;44.644;11.448;2022-09-01T10:27:32;3.80;;;1.80;;
12654;SDS011;6392;44.644;11.448;2022-09-01T10:30:05;2.53;;;1.40;;
12654;SDS011;6392;44.644;11.448;2022-09-01T10:32:36;5.57;;;1.80;;
12654;SDS011;6392;44.644;11.448;2022-09-01T10:35:07;3.70;;;1.37;;
12654;SDS011;6392;44.644;11.448;2022-09-01T10:37:38;3.30;;;2.17;;
12654;SDS011;6392;44.644;11.448;2022-09-01T10:40:15;2.70;;;1.90;;
12654;SDS011;6392;44.644;11.448;2022-09-01T10:43:00;2.10;;;1.53;;
12654;SDS011;6392;44.644;11.448;2022-09-01T10:45:52;4.50;;;1.90;;
12654;SDS011;6392;44.644;11.448;2022-09-01T10:48:22;2.23;;;1.30;;
12654;SDS011;6392;44.644;11.448;2022-09-01T10:50:57;3.13;;;1.60;;
12654;SDS011;6392;44.644;11.448;2022-09-01T10:57:21;2.30;;;1.47;;
12654;SDS011;6392;44.644;11.448;2022-09-01T11:00:06;1.93;;;1.50;;
12654;SDS011;6392;44.644;11.448;2022-09-01T11:06:04;3.53;;;1.77;;
12654;SDS011;6392;44.644;11.448;2022-09-01T11:08:43;1.90;;;1.67;;
12654;SDS011;6392;44.644;11.448;2022-09-01T11:11:15;5.10;;;1.57;;
12654;SDS011;6392;44.644;11.448;2022-09-01T11:13:59;2.80;;;1.80;;
12654;SDS011;6392;44.644;11.448;2022-09-01T11:16:30;2.60;;;1.70;;
12654;SDS011;6392;44.644;11.448;2022-09-01T11:22:10;1.93;;;1.80;;
12654;SDS011;6392;44.644;11.448;2022-09-01T11:24:46;3.00;;;1.93;;
12654;SDS011;6392;44.644;11.448;2022-09-01T11:30:17;2.47;;;1.73;;
12654;SDS011;6392;44.644;11.448;2022-09-01T11:32:49;3.33;;;1.47;;
12654;SDS011;6392;44.644;11.448;2022-09-01T11:35:22;1.50;;;1.40;;
12654;SDS011;6392;44.644;11.448;2022-09-01T11:37:54;2.27;;;1.43;;
12654;SDS011;6392;44.644;11.448;2022-09-01T11:40:23;3.57;;;1.40;;
12654;SDS011;6392;44.644;11.448;2022-09-01T11:42:55;2.00;;;1.60;;
12654;SDS011;6392;44.644;11.448;2022-09-01T11:45:25;1.37;;;1.23;;
12654;SDS011;6392;44.644;11.448;2022-09-01T11:47:57;1.80;;;1.40;;
12654;SDS011;6392;44.644;11.448;2022-09-01T11:50:28;1.40;;;1.30;;
12654;SDS011;6392;44.644;11.448;2022-09-01T11:52:57;2.13;;;1.40;;
12654;SDS011;6392;44.644;11.448;2022-09-01T11:55:28;2.57;;;1.40;;
12654;SDS011;6392;44.644;11.448;2022-09-01T11:57:56;1.77;;;1.23;;
12654;SDS011;6392;44.644;11.448;2022-09-01T12:00:25;1.70;;;1.60;;
12654;SDS011;6392;44.644;11.448;2022-09-01T12:02:54;2.97;;;1.30;;
12654;SDS011;6392;44.644;11.448;2022-09-01T12:05:25;2.03;;;1.40;;
12654;SDS011;6392;44.644;11.448;2022-09-01T12:07:54;1.57;;;1.47;;
12654;SDS011;6392;44.644;11.448;2022-09-01T12:10:25;2.33;;;1.70;;
12654;SDS011;6392;44.644;11.448;2022-09-01T12:13:01;2.00;;;1.77;;
12654;SDS011;6392;44.644;11.448;2022-09-01T12:15:30;2.47;;;1.73;;
12654;SDS011;6392;44.644;11.448;2022-09-01T12:18:09;2.13;;;1.77;;
12654;SDS011;6392;44.644;11.448;2022-09-01T12:20:40;3.67;;;1.60;;
12654;SDS011;6392;44.644;11.448;2022-09-01T12:23:15;3.33;;;1.50;;
12654;SDS011;6392;44.644;11.448;2022-09-01T12:25:47;3.90;;;2.00;;
12654;SDS011;6392;44.644;11.448;2022-09-01T12:28:15;3.57;;;1.40;;
12654;SDS011;6392;44.644;11.448;2022-09-01T12:30:42;2.70;;;1.60;;
12654;SDS011;6392;44.644;11.448;2022-09-01T12:33:10;2.37;;;1.50;;
12654;SDS011;6392;44.644;11.448;2022-09-01T12:35:40;1.50;;;1.20;;
12654;SDS011;6392;44.644;11.448;2022-09-01T12:38:20;3.37;;;1.60;;
12654;SDS011;6392;44.644;11.448;2022-09-01T12:40:50;1.67;;;1.57;;
12654;SDS011;6392;44.644;11.448;2022-09-01T12:43:29;3.37;;;1.33;;
12654;SDS011;6392;44.644;11.448;2022-09-01T12:45:58;1.73;;;1.23;;
12654;SDS011;6392;44.644;11.448;2022-09-01T12:48:26;2.43;;;1.27;;
12654;SDS011;6392;44.644;11.448;2022-09-01T12:50:57;1.73;;;1.40;;
12654;SDS011;6392;44.644;11.448;2022-09-01T12:53:26;2.00;;;1.10;;
12654;SDS011;6392;44.644;11.448;2022-09-01T12:56:00;1.97;;;1.30;;
12654;SDS011;6392;44.644;11.448;2022-09-01T12:58:46;1.90;;;1.10;;
12654;SDS011;6392;44.644;11.448;2022-09-01T13:01:27;1.70;;;1.10;;
12654;SDS011;6392;44.644;11.448;2022-09-01T13:04:08;2.50;;;1.30;;
12654;SDS011;6392;44.644;11.448;2022-09-01T13:06:39;1.30;;;1.20;;
12654;SDS011;6392;44.644;11.448;2022-09-01T13:09:06;2.87;;;1.30;;
12654;SDS011;6392;44.644;11.448;2022-09-01T13:11:33;2.17;;;1.20;;
12654;SDS011;6392;44.644;11.448;2022-09-01T13:14:00;1.63;;;1.20;;
12654;SDS011;6392;44.644;11.448;2022-09-01T13:16:27;5.00;;;1.20;;
12654;SDS011;6392;44.644;11.448;2022-09-01T13:18:54;2.03;;;1.20;;
12654;SDS011;6392;44.644;11.448;2022-09-01T13:21:21;2.30;;;1.37;;
12654;SDS011;6392;44.644;11.448;2022-09-01T13:23:50;2.43;;;1.13;;
12654;SDS011;6392;44.644;11.448;2022-09-01T13:26:17;1.40;;;1.30;;
12654;SDS011;6392;44.644;11.448;2022-09-01T13:28:44;2.20;;;1.20;;
12654;SDS011;6392;44.644;11.448;2022-09-01T13:31:11;2.60;;;1.13;;
12654;SDS011;6392;44.644;11.448;2022-09-01T13:33:39;1.90;;;1.10;;
12654;SDS011;6392;44.644;11.448;2022-09-01T13:36:06;3.10;;;1.63;;
12654;SDS011;6392;44.644;11.448;2022-09-01T13:38:33;1.10;;;1.03;;
12654;SDS011;6392;44.644;11.448;2022-09-01T13:41:04;2.03;;;1.20;;
12654;SDS011;6392;44.644;11.448;2022-09-01T13:43:33;3.10;;;1.23;;
12654;SDS011;6392;44.644;11.448;2022-09-01T13:46:00;1.20;;;1.10;;
12654;SDS011;6392;44.644;11.448;2022-09-01T13:48:27;1.70;;;1.20;;
12654;SDS011;6392;44.644;11.448;2022-09-01T13:50:54;0.97;;;0.90;;
12654;SDS011;6392;44.644;11.448;2022-09-01T13:53:23;2.40;;;1.20;;
12654;SDS011;6392;44.644;11.448;2022-09-01T13:55:50;4.37;;;1.03;;
12654;SDS011;6392;44.644;11.448;2022-09-01T13:58:19;1.70;;;1.10;;
12654;SDS011;6392;44.644;11.448;2022-09-01T14:00:47;1.53;;;1.07;;
12654;SDS011;6392;44.644;11.448;2022-09-01T14:03:15;3.90;;;1.37;;
12654;SDS011;6392;44.644;11.448;2022-09-01T14:05:44;1.80;;;1.53;;
12654;SDS011;6392;44.644;11.448;2022-09-01T14:08:13;1.53;;;1.00;;
12654;SDS011;6392;44.644;11.448;2022-09-01T14:10:41;2.37;;;1.40;;
12654;SDS011;6392;44.644;11.448;2022-09-01T14:13:12;1.50;;;1.20;;
12654;SDS011;6392;44.644;11.448;2022-09-01T14:15:42;4.00;;;1.20;;
12654;SDS011;6392;44.644;11.448;2022-09-01T14:18:11;2.10;;;1.50;;
12654;SDS011;6392;44.644;11.448;2022-09-01T14:20:42;1.30;;;1.20;;
12654;SDS011;6392;44.644;11.448;2022-09-01T14:23:13;2.47;;;1.23;;
12654;SDS011;6392;44.644;11.448;2022-09-01T14:25:41;1.60;;;0.97;;
12654;SDS011;6392;44.644;11.448;2022-09-01T14:28:11;2.20;;;1.20;;
12654;SDS011;6392;44.644;11.448;2022-09-01T14:30:40;2.90;;;1.20;;
12654;SDS011;6392;44.644;11.448;2022-09-01T14:33:11;2.30;;;1.00;;
12654;SDS011;6392;44.644;11.448;2022-09-01T14:35:40;1.53;;;1.20;;
12654;SDS011;6392;44.644;11.448;2022-09-01T14:38:11;1.70;;;1.30;;
12654;SDS011;6392;44.644;11.448;2022-09-01T14:40:40;1.60;;;1.00;;
12654;SDS011;6392;44.644;11.448;2022-09-01T14:43:09;2.17;;;1.10;;
12654;SDS011;6392;44.644;11.448;2022-09-01T14:45:43;1.73;;;1.30;;
12654;SDS011;6392;44.644;11.448;2022-09-01T14:48:13;3.00;;;1.20;;
12654;SDS011;6392;44.644;11.448;2022-09-01T14:50:43;1.83;;;1.10;;
12654;SDS011;6392;44.644;11.448;2022-09-01T14:53:15;1.47;;;1.27;;
12654;SDS011;6392;44.644;11.448;2022-09-01T14:55:43;1.73;;;1.43;;
12654;SDS011;6392;44.644;11.448;2022-09-01T14:58:11;2.90;;;1.10;;
12654;SDS011;6392;44.644;11.448;2022-09-01T15:00:43;1.47;;;1.00;;
12654;SDS011;6392;44.644;11.448;2022-09-01T15:03:12;0.90;;;0.90;;
12654;SDS011;6392;44.644;11.448;2022-09-01T15:05:42;1.43;;;1.10;;
12654;SDS011;6392;44.644;11.448;2022-09-01T15:08:12;1.47;;;1.10;;
12654;SDS011;6392;44.644;11.448;2022-09-01T15:10:42;1.90;;;1.47;;
12654;SDS011;6392;44.644;11.448;2022-09-01T15:13:12;2.50;;;0.93;;
12654;SDS011;6392;44.644;11.448;2022-09-01T15:15:39;1.23;;;1.13;;